Terminal Aerodrome Forecast
Issued by NWS Missoula, MT

Home | Current Version | Previous Version | Text Only | Print | Product List | Glossary On
Versions: 1 2 3 4 5 6 7 8 9 10 11 12 13
422
FTUS45 KMSO 301129
TAFBTM
TAF
KBTM 301129Z 3012/0112 16006KT P6SM VCSH BKN070
     FM301500 20006KT P6SM -SHRA BKN080
     FM301700 19006KT P6SM SCT100
     FM302100 18009KT P6SM -SHRA BKN060=

USA.gov is the U.S. government's official web portal to all federal, state and local government web resources and services.